Kimball, Minnesota
Current Conditions -  °F | °C
As of 3:53 AM on Thursday 23 Oct 2014 (Local Time) from KLJF Reporting Station
Overcast Overcast  
Wind Chill: 55°   Ceiling: 600
Heat Index: 55°   Visibility: 7mi
Dew Point: 55°   Wind: 3mph
Humidity: 100%   Direction: 240°WSW
Pressure: 29.98"   Gusts: NA
Location:  45.31°N, 94.3°W
Report Text: KLJF 230853Z AUTO 24003KT 7SM OVC006 13/13 A2998 RMK AO2
Loading
Personal Weather Stations






























Interactive Weather Map
Tropical Storm Tracking
New forecast layout! Learn more

10-Day Weather Forecast

Advertisements
Track Severe Weather on mobile